createdAt,value
2019-05-05T00:01:34.424Z,24.03
2019-05-05T00:04:24.274Z,18.93
2019-05-05T00:06:54.819Z,19.73
2019-05-05T00:09:25.167Z,19.37
2019-05-05T00:12:14.667Z,21.07
2019-05-05T00:15:02.486Z,20.70
2019-05-05T00:17:34.250Z,18.27
2019-05-05T00:20:05.136Z,18.30
2019-05-05T00:22:35.010Z,19.37
2019-05-05T00:25:05.078Z,20.57
2019-05-05T00:27:34.677Z,18.23
2019-05-05T00:30:05.377Z,17.83
2019-05-05T00:32:34.890Z,18.00
2019-05-05T00:35:04.349Z,16.63
2019-05-05T00:37:34.577Z,16.93
2019-05-05T00:40:04.954Z,17.63
2019-05-05T00:42:35.226Z,17.80
2019-05-05T00:45:05.597Z,16.33
2019-05-05T00:47:42.311Z,17.10
2019-05-05T00:50:14.586Z,17.67
2019-05-05T00:52:44.530Z,15.80
2019-05-05T00:55:15.022Z,16.20
2019-05-05T00:57:45.363Z,15.43
2019-05-05T01:00:24.445Z,15.80
2019-05-05T01:02:54.212Z,14.67
2019-05-05T01:05:47.958Z,14.93
2019-05-05T01:08:19.663Z,15.17
2019-05-05T01:10:48.081Z,13.97
2019-05-05T01:13:16.498Z,14.63
2019-05-05T01:15:44.967Z,14.30
2019-05-05T01:18:15.200Z,14.10
2019-05-05T01:20:44.942Z,14.37
2019-05-05T01:23:15.032Z,14.13
2019-05-05T01:25:45.512Z,14.57
2019-05-05T01:28:14.405Z,13.30
2019-05-05T01:30:46.386Z,13.27
2019-05-05T01:33:25.068Z,14.13
2019-05-05T01:35:55.196Z,13.77
2019-05-05T01:38:30.858Z,14.80
2019-05-05T01:41:14.753Z,14.77
2019-05-05T01:43:45.061Z,14.50
2019-05-05T01:46:14.306Z,15.30
2019-05-05T01:48:44.542Z,14.30
2019-05-05T01:51:14.361Z,15.33
2019-05-05T01:53:44.294Z,15.60
2019-05-05T01:56:15.261Z,14.97
2019-05-05T01:58:44.185Z,15.07
2019-05-05T02:01:12.686Z,13.87
2019-05-05T02:03:41.273Z,13.90
2019-05-05T02:06:09.812Z,14.33
2019-05-05T02:08:38.216Z,14.97
2019-05-05T02:11:06.693Z,14.07
2019-05-05T02:13:35.214Z,13.47
2019-05-05T02:16:04.660Z,13.40
2019-05-05T02:18:34.558Z,13.57
2019-05-05T02:21:06.380Z,14.23
2019-05-05T02:23:36.347Z,14.90
2019-05-05T02:26:06.754Z,14.40
2019-05-05T02:28:41.722Z,15.33
2019-05-05T02:31:35.762Z,15.40
2019-05-05T02:34:05.441Z,14.63
2019-05-05T02:36:35.495Z,15.10
2019-05-05T02:39:07.901Z,15.43
2019-05-05T02:41:37.047Z,16.73
2019-05-05T02:44:05.581Z,15.03
2019-05-05T02:46:56.156Z,15.60
2019-05-05T02:49:25.524Z,16.33
2019-05-05T02:51:55.228Z,16.53
2019-05-05T02:54:25.342Z,16.40
2019-05-05T02:56:54.350Z,16.53
2019-05-05T02:59:45.893Z,16.57
2019-05-05T03:02:17.853Z,17.53
2019-05-05T03:04:47.546Z,17.50
2019-05-05T03:07:17.743Z,15.23
2019-05-05T03:09:48.853Z,16.50
2019-05-05T03:12:19.983Z,18.27
2019-05-05T03:14:53.668Z,16.83
2019-05-05T03:17:23.443Z,17.10
2019-05-05T03:19:53.571Z,17.37
2019-05-05T03:22:23.688Z,17.20
2019-05-05T03:24:54.121Z,16.00
2019-05-05T03:27:23.783Z,16.23
2019-05-05T03:29:53.545Z,17.63
2019-05-05T03:32:25.306Z,18.27
2019-05-05T03:34:53.721Z,18.07
2019-05-05T03:37:22.415Z,18.23
2019-05-05T03:39:57.138Z,18.83
2019-05-05T03:42:45.473Z,20.17
2019-05-05T03:45:29.813Z,16.57
2019-05-05T03:47:58.300Z,17.97
2019-05-05T03:50:26.713Z,19.50
2019-05-05T03:52:55.118Z,19.43
2019-05-05T03:55:24.123Z,19.90
2019-05-05T03:57:53.832Z,18.70
2019-05-05T04:00:45.035Z,19.47
2019-05-05T04:03:14.671Z,20.00
2019-05-05T04:05:51.333Z,19.63
2019-05-05T04:08:19.731Z,18.20
2019-05-05T04:10:48.632Z,19.47
2019-05-05T04:13:17.258Z,19.07
2019-05-05T04:16:06.573Z,18.47
2019-05-05T04:18:40.778Z,19.83
2019-05-05T04:21:09.238Z,19.87
2019-05-05T04:23:37.631Z,19.00
2019-05-05T04:26:06.100Z,19.17
2019-05-05T04:28:34.618Z,19.03
2019-05-05T04:31:04.241Z,18.93
2019-05-05T04:33:34.167Z,18.53
2019-05-05T04:36:03.877Z,17.40
2019-05-05T04:38:32.461Z,16.53
2019-05-05T04:41:00.865Z,16.87
2019-05-05T04:43:29.258Z,15.27
2019-05-05T04:45:57.720Z,15.30
2019-05-05T04:48:32.230Z,15.67
2019-05-05T04:51:13.923Z,16.30
2019-05-05T04:54:00.506Z,17.03
2019-05-05T04:56:30.197Z,16.20
2019-05-05T04:58:58.545Z,16.13
2019-05-05T05:01:26.955Z,17.47
2019-05-05T05:04:08.929Z,18.13
2019-05-05T05:06:40.795Z,18.57
2019-05-05T05:09:09.220Z,18.33
2019-05-05T05:11:37.638Z,17.90
2019-05-05T05:14:06.060Z,19.50
2019-05-05T05:16:35.674Z,19.83
2019-05-05T05:19:04.605Z,18.70
2019-05-05T05:21:34.229Z,19.23
2019-05-05T05:24:04.032Z,18.37
2019-05-05T05:26:33.608Z,17.23
2019-05-05T05:29:04.366Z,17.10
2019-05-05T05:31:33.734Z,17.27
2019-05-05T05:34:04.260Z,17.03
2019-05-05T05:36:33.819Z,15.87
2019-05-05T05:39:09.320Z,15.10
2019-05-05T05:41:46.932Z,17.57
2019-05-05T05:44:27.990Z,15.97
2019-05-05T05:47:05.923Z,16.20
2019-05-05T05:49:48.057Z,17.13
2019-05-05T05:52:19.229Z,15.00
2019-05-05T05:54:46.686Z,11.27
2019-05-05T05:57:15.133Z,13.17
2019-05-05T05:59:44.447Z,10.50
2019-05-05T06:02:15.494Z,13.03
2019-05-05T06:04:44.651Z,11.07
2019-05-05T06:07:14.282Z,10.93
2019-05-05T06:09:43.757Z,9.20
2019-05-05T06:12:14.221Z,9.47
2019-05-05T06:14:44.539Z,8.77
2019-05-05T06:17:13.523Z,8.80
2019-05-05T06:19:44.457Z,7.67
2019-05-05T06:22:15.215Z,8.10
2019-05-05T06:24:43.955Z,7.87
2019-05-05T06:27:14.260Z,8.87
2019-05-05T06:29:43.821Z,8.40
2019-05-05T06:32:14.381Z,8.60
2019-05-05T06:34:44.323Z,8.30
2019-05-05T06:37:14.490Z,8.03
2019-05-05T06:39:43.970Z,8.07
2019-05-05T06:42:31.321Z,8.37
2019-05-05T06:45:04.746Z,8.00
2019-05-05T06:47:37.632Z,7.30
2019-05-05T06:50:06.413Z,6.53
2019-05-05T06:52:44.053Z,8.00
2019-05-05T06:55:05.161Z,7.67
2019-05-05T06:57:35.393Z,7.43
2019-05-05T07:00:14.966Z,7.47
2019-05-05T07:02:56.951Z,6.30
2019-05-05T07:05:25.395Z,5.77
2019-05-05T07:07:53.841Z,6.00
2019-05-05T07:10:24.452Z,4.70
2019-05-05T07:12:54.369Z,5.83
2019-05-05T07:15:23.717Z,5.50
2019-05-05T07:17:53.575Z,5.20
2019-05-05T07:20:24.025Z,5.93
2019-05-05T07:22:59.761Z,6.93
2019-05-05T07:25:24.259Z,6.37
2019-05-05T07:27:54.699Z,6.87
2019-05-05T07:30:24.294Z,6.67
2019-05-05T07:32:53.796Z,5.70
2019-05-05T07:35:56.063Z,6.07
2019-05-05T07:38:15.441Z,6.43
2019-05-05T07:40:45.846Z,6.73
2019-05-05T07:43:15.339Z,6.47
2019-05-05T07:45:44.617Z,5.53
2019-05-05T07:48:13.858Z,5.37
2019-05-05T07:50:45.009Z,5.63
2019-05-05T07:53:17.549Z,5.73
2019-05-05T07:55:43.766Z,5.17
2019-05-05T07:58:13.965Z,5.40
2019-05-05T08:00:43.671Z,5.10
2019-05-05T08:03:14.287Z,5.20
2019-05-05T08:05:44.178Z,5.60
2019-05-05T08:08:13.913Z,5.80
2019-05-05T08:10:43.712Z,6.53
2019-05-05T08:13:14.049Z,1.80
2019-05-05T08:15:56.667Z,2.67
2019-05-05T08:18:34.445Z,2.10
2019-05-05T08:21:04.344Z,2.90
2019-05-05T08:23:44.761Z,3.20
2019-05-05T08:26:35.465Z,2.50
2019-05-05T08:29:24.010Z,2.07
2019-05-05T08:31:57.647Z,2.50
2019-05-05T08:34:26.226Z,2.80
2019-05-05T08:36:54.671Z,2.10
2019-05-05T08:39:24.432Z,3.00
2019-05-05T08:41:53.805Z,2.40
2019-05-05T08:44:23.657Z,2.50
2019-05-05T08:46:53.770Z,2.10
2019-05-05T08:49:24.408Z,2.70
2019-05-05T08:51:54.710Z,2.80
2019-05-05T08:54:23.644Z,2.83
2019-05-05T08:56:52.138Z,3.27
2019-05-05T08:59:20.639Z,3.30
2019-05-05T09:01:49.085Z,3.63
2019-05-05T09:04:17.571Z,3.13
2019-05-05T09:06:45.973Z,2.90
2019-05-05T09:09:14.598Z,2.73
2019-05-05T09:11:43.802Z,4.27
2019-05-05T09:14:14.707Z,3.70
2019-05-05T09:16:44.840Z,3.63
2019-05-05T09:19:17.409Z,3.33
2019-05-05T09:21:46.848Z,3.10
2019-05-05T09:24:36.032Z,3.80
2019-05-05T09:27:24.878Z,4.03
2019-05-05T09:29:54.553Z,3.13
2019-05-05T09:32:24.299Z,2.67
2019-05-05T09:34:54.186Z,3.20
2019-05-05T09:37:24.577Z,3.53
2019-05-05T09:39:54.233Z,3.27
2019-05-05T09:42:23.634Z,3.23
2019-05-05T09:44:54.027Z,3.40
2019-05-05T09:47:23.992Z,3.60
2019-05-05T09:49:54.793Z,3.53
2019-05-05T09:52:24.379Z,3.37
2019-05-05T09:54:54.453Z,4.20
2019-05-05T09:57:23.690Z,3.53
2019-05-05T09:59:55.194Z,3.33
2019-05-05T10:02:24.051Z,3.50
2019-05-05T10:04:54.500Z,3.37
2019-05-05T10:07:24.193Z,3.50
2019-05-05T10:09:54.349Z,3.37
2019-05-05T10:12:22.863Z,3.03
2019-05-05T10:14:51.426Z,2.90
2019-05-05T10:17:19.895Z,3.40
2019-05-05T10:19:48.513Z,2.30
2019-05-05T10:22:18.461Z,3.53
2019-05-05T10:24:55.135Z,2.80
2019-05-05T10:27:22.452Z,3.10
2019-05-05T10:29:50.973Z,2.87
2019-05-05T10:32:19.554Z,2.77
2019-05-05T10:35:00.608Z,2.53
2019-05-05T10:37:30.656Z,2.77
2019-05-05T10:39:59.101Z,4.57
2019-05-05T10:42:46.646Z,2.90
2019-05-05T10:45:15.096Z,8.30
2019-05-05T10:47:45.337Z,4.90
2019-05-05T10:50:18.533Z,2.90
2019-05-05T10:52:47.341Z,2.60
2019-05-05T10:55:16.799Z,2.93
2019-05-05T10:57:46.383Z,3.13
2019-05-05T11:00:18.925Z,3.20
2019-05-05T11:02:47.387Z,2.90
2019-05-05T11:05:16.211Z,2.80
2019-05-05T11:08:04.381Z,3.67
2019-05-05T11:10:34.129Z,3.20
2019-05-05T11:13:02.612Z,2.93
2019-05-05T11:15:31.159Z,3.80
2019-05-05T11:17:59.789Z,2.90
2019-05-05T11:20:33.851Z,2.47
2019-05-05T11:23:04.696Z,3.20
2019-05-05T11:25:33.729Z,3.13
2019-05-05T11:28:05.414Z,2.80
2019-05-05T11:30:38.705Z,2.83
2019-05-05T11:33:34.437Z,3.07
2019-05-05T11:36:28.370Z,3.10
2019-05-05T11:38:57.714Z,3.50
2019-05-05T11:41:26.137Z,3.43
2019-05-05T11:43:55.065Z,4.27
2019-05-05T11:46:24.737Z,3.17
2019-05-05T11:48:54.543Z,3.43
2019-05-05T11:51:24.982Z,2.90
2019-05-05T11:53:54.165Z,2.97
2019-05-05T11:56:22.734Z,3.00
2019-05-05T11:58:51.208Z,2.67
2019-05-05T12:01:19.703Z,2.30
2019-05-05T12:03:48.159Z,2.50
2019-05-05T12:06:18.569Z,2.60
2019-05-05T12:08:47.198Z,2.17
2019-05-05T12:11:15.686Z,2.13
2019-05-05T12:13:45.133Z,3.13
2019-05-05T12:16:28.918Z,2.43
2019-05-05T12:18:57.523Z,3.43
2019-05-05T12:21:27.171Z,2.90
2019-05-05T12:23:55.631Z,2.50
2019-05-05T12:26:47.669Z,2.40
2019-05-05T12:29:25.866Z,2.50
2019-05-05T12:31:54.451Z,2.23
2019-05-05T12:34:23.643Z,2.00
2019-05-05T12:36:53.922Z,2.63
2019-05-05T12:39:22.788Z,2.73
2019-05-05T12:41:51.246Z,2.60
2019-05-05T12:44:28.036Z,2.23
2019-05-05T12:47:28.306Z,2.60
2019-05-05T12:49:56.853Z,4.53
2019-05-05T12:52:25.483Z,2.60
2019-05-05T12:54:54.640Z,1.97
2019-05-05T12:57:24.127Z,2.73
2019-05-05T12:59:53.655Z,3.40
2019-05-05T13:02:23.554Z,3.23
2019-05-05T13:04:54.345Z,1.77
2019-05-05T13:07:24.276Z,2.17
2019-05-05T13:09:54.501Z,1.53
2019-05-05T13:12:26.423Z,2.37
2019-05-05T13:14:57.321Z,2.20
2019-05-05T13:17:27.114Z,2.60
2019-05-05T13:20:16.113Z,2.70
2019-05-05T13:23:10.089Z,3.07
2019-05-05T13:26:15.950Z,2.00
2019-05-05T13:28:44.469Z,3.00
2019-05-05T13:31:16.024Z,2.30
2019-05-05T13:33:44.505Z,2.03
2019-05-05T13:36:13.983Z,2.20
2019-05-05T13:38:43.962Z,1.90
2019-05-05T13:41:13.326Z,2.40
2019-05-05T13:43:41.853Z,2.43
2019-05-05T13:46:24.645Z,1.77
2019-05-05T13:48:53.954Z,1.80
2019-05-05T13:51:23.988Z,1.47
2019-05-05T13:53:54.133Z,1.43
2019-05-05T13:56:24.375Z,1.20
2019-05-05T13:58:55.291Z,1.23
2019-05-05T14:01:23.893Z,1.70
2019-05-05T14:03:54.162Z,1.50
2019-05-05T14:06:44.477Z,1.23
2019-05-05T14:09:13.955Z,1.50
2019-05-05T14:11:44.416Z,1.40
2019-05-05T14:14:13.842Z,1.50
2019-05-05T14:16:44.667Z,1.77
2019-05-05T14:19:14.755Z,2.07
2019-05-05T14:21:44.573Z,1.93
2019-05-05T14:24:23.835Z,1.50
2019-05-05T14:26:54.122Z,2.03
2019-05-05T14:30:00.281Z,1.53
2019-05-05T14:32:34.534Z,2.27
2019-05-05T14:35:15.287Z,1.90
2019-05-05T14:37:47.081Z,2.10
2019-05-05T14:40:17.446Z,3.10
2019-05-05T14:42:45.862Z,2.07
2019-05-05T14:45:15.314Z,1.93
2019-05-05T14:47:44.226Z,1.87
2019-05-05T14:50:34.630Z,1.60
2019-05-05T14:53:04.102Z,2.00
2019-05-05T14:55:53.671Z,2.03
2019-05-05T14:58:40.582Z,2.10
2019-05-05T15:01:09.007Z,2.23
2019-05-05T15:03:37.816Z,2.67
2019-05-05T15:06:30.380Z,1.97
2019-05-05T15:09:09.186Z,2.30
2019-05-05T15:11:58.094Z,2.00
2019-05-05T15:14:26.519Z,2.30
2019-05-05T15:16:54.978Z,2.37
2019-05-05T15:19:27.061Z,2.53
2019-05-05T15:21:55.571Z,1.87
2019-05-05T15:24:24.588Z,2.67
2019-05-05T15:26:55.188Z,1.97
2019-05-05T15:29:25.152Z,2.60
2019-05-05T15:31:53.972Z,1.67
2019-05-05T15:34:24.067Z,1.97
2019-05-05T15:36:54.425Z,1.97
2019-05-05T15:39:25.217Z,2.23
2019-05-05T15:41:54.372Z,2.20
2019-05-05T15:44:24.145Z,2.17
2019-05-05T15:46:55.696Z,2.40
2019-05-05T15:49:23.196Z,1.93
2019-05-05T15:51:53.800Z,2.40
2019-05-05T15:54:23.649Z,2.50
2019-05-05T15:57:03.080Z,2.50
2019-05-05T15:59:24.032Z,3.67
2019-05-05T16:01:54.778Z,2.50
2019-05-05T16:04:24.524Z,0.00
2019-05-05T16:06:54.114Z,0.00
2019-05-05T16:09:24.596Z,1.80
2019-05-05T16:11:54.599Z,1.93
2019-05-05T16:14:23.872Z,1.80
2019-05-05T16:17:15.506Z,3.10
2019-05-05T16:20:04.570Z,3.40
2019-05-05T16:22:43.675Z,4.47
2019-05-05T16:25:14.191Z,3.57
2019-05-05T16:27:44.658Z,3.80
2019-05-05T16:30:33.875Z,4.20
2019-05-05T16:33:04.225Z,4.23
2019-05-05T16:35:51.199Z,3.63
2019-05-05T16:38:19.643Z,2.80
2019-05-05T16:40:48.593Z,4.10
2019-05-05T16:43:17.129Z,2.63
2019-05-05T16:45:45.546Z,1.90
2019-05-05T16:48:14.003Z,2.20
2019-05-05T16:50:44.146Z,1.27
2019-05-05T16:53:34.306Z,1.80
2019-05-05T16:56:01.574Z,1.10
2019-05-05T16:58:30.084Z,1.30
2019-05-05T17:00:59.876Z,1.33
2019-05-05T17:03:30.602Z,1.53
2019-05-05T17:05:59.194Z,2.37
2019-05-05T17:08:28.746Z,2.93
2019-05-05T17:10:57.314Z,2.20
2019-05-05T17:13:47.826Z,2.10
2019-05-05T17:16:40.483Z,1.43
2019-05-05T17:19:21.856Z,1.30
2019-05-05T17:22:09.536Z,1.37
2019-05-05T17:24:38.915Z,1.53
2019-05-05T17:27:09.931Z,1.40
2019-05-05T17:29:38.392Z,1.63
2019-05-05T17:32:07.203Z,1.30
2019-05-05T17:34:35.761Z,1.30
2019-05-05T17:37:05.238Z,1.40
2019-05-05T17:39:38.271Z,1.60
2019-05-05T17:42:32.013Z,1.40
2019-05-05T17:45:18.393Z,1.40
2019-05-05T17:47:54.018Z,1.40
2019-05-05T17:50:43.965Z,1.30
2019-05-05T17:53:29.798Z,1.60
2019-05-05T17:55:59.488Z,1.40
2019-05-05T17:58:27.915Z,1.40
2019-05-05T18:00:58.972Z,1.47
2019-05-05T18:03:27.626Z,1.73
2019-05-05T18:06:14.399Z,1.77
2019-05-05T18:08:48.701Z,2.27
2019-05-05T18:11:22.273Z,4.57
2019-05-05T18:13:54.439Z,2.87
2019-05-05T18:16:26.553Z,2.10
2019-05-05T18:18:54.856Z,2.60
2019-05-05T18:21:43.776Z,2.97
2019-05-05T18:24:13.765Z,3.60
2019-05-05T18:26:43.654Z,12.23
2019-05-05T18:29:12.166Z,10.03
2019-05-05T18:31:40.662Z,5.63
2019-05-05T18:34:09.253Z,4.17
2019-05-05T18:36:37.713Z,3.80
2019-05-05T18:39:07.188Z,4.20
2019-05-05T18:41:45.518Z,4.23
2019-05-05T18:44:18.901Z,4.57
2019-05-05T18:47:07.171Z,4.20
2019-05-05T18:49:35.634Z,3.30
2019-05-05T18:52:06.249Z,4.20
2019-05-05T18:54:34.764Z,4.30
2019-05-05T18:57:05.280Z,2.53
2019-05-05T18:59:35.314Z,2.10
2019-05-05T19:02:24.436Z,2.10
2019-05-05T19:05:15.332Z,1.83
2019-05-05T19:08:04.622Z,1.83
2019-05-05T19:10:33.731Z,2.90
2019-05-05T19:13:02.201Z,2.57
2019-05-05T19:15:30.810Z,1.30
2019-05-05T19:17:59.741Z,1.30
2019-05-05T19:20:44.581Z,1.30
2019-05-05T19:23:14.760Z,1.90
2019-05-05T19:26:03.811Z,3.00
2019-05-05T19:28:43.637Z,3.80
2019-05-05T19:31:04.342Z,1.50
2019-05-05T19:33:34.033Z,1.63
2019-05-05T19:36:04.918Z,1.50
2019-05-05T19:38:34.557Z,1.50
2019-05-05T19:41:03.913Z,1.40
2019-05-05T19:43:33.946Z,1.10
2019-05-05T19:46:03.561Z,1.10
2019-05-05T19:48:33.980Z,1.30
2019-05-05T19:51:09.704Z,1.40
2019-05-05T19:53:38.538Z,1.83
2019-05-05T19:56:07.424Z,1.83
2019-05-05T19:58:37.141Z,1.70
2019-05-05T20:01:07.251Z,2.77
2019-05-05T20:03:36.611Z,3.80
2019-05-05T20:06:07.729Z,3.73
2019-05-05T20:08:41.690Z,4.10
2019-05-05T20:11:09.169Z,3.60
2019-05-05T20:13:38.391Z,2.33
2019-05-05T20:16:43.728Z,2.40
2019-05-05T20:19:13.858Z,2.40
2019-05-05T20:21:43.901Z,2.40
2019-05-05T20:24:14.474Z,2.60
2019-05-05T20:26:42.892Z,2.47
2019-05-05T20:29:30.269Z,3.10
2019-05-05T20:31:58.828Z,3.70
2019-05-05T20:34:54.054Z,7.23
2019-05-05T20:37:27.525Z,6.03
2019-05-05T20:39:57.739Z,5.40
2019-05-05T20:42:26.809Z,5.80
2019-05-05T20:45:00.412Z,3.43
2019-05-05T20:47:30.581Z,3.47
2019-05-05T20:49:59.051Z,3.10
2019-05-05T20:52:30.293Z,3.53
2019-05-05T20:55:01.075Z,3.50
2019-05-05T20:57:29.565Z,2.33
2019-05-05T20:59:59.278Z,2.20
2019-05-05T21:02:27.718Z,3.30
2019-05-05T21:04:57.186Z,2.40
2019-05-05T21:07:26.544Z,2.30
2019-05-05T21:09:55.083Z,2.97
2019-05-05T21:12:24.602Z,2.67
2019-05-05T21:14:53.868Z,2.13
2019-05-05T21:17:24.211Z,2.30
2019-05-05T21:19:53.123Z,2.70
2019-05-05T21:22:37.993Z,2.70
2019-05-05T21:25:23.736Z,2.80
2019-05-05T21:27:51.904Z,3.60
2019-05-05T21:30:20.366Z,3.10
2019-05-05T21:32:49.104Z,3.37
2019-05-05T21:35:19.278Z,2.70
2019-05-05T21:37:49.088Z,2.80
2019-05-05T21:40:18.660Z,2.07
2019-05-05T21:42:47.151Z,2.23
2019-05-05T21:45:15.622Z,2.50
2019-05-05T21:47:44.531Z,1.87
2019-05-05T21:50:15.683Z,1.90
2019-05-05T21:52:49.053Z,2.13
2019-05-05T21:55:39.808Z,1.90
2019-05-05T21:58:22.746Z,2.30
2019-05-05T22:01:19.605Z,2.20
2019-05-05T22:03:48.220Z,2.20
2019-05-05T22:06:16.639Z,2.10
2019-05-05T22:08:45.158Z,2.43
2019-05-05T22:11:14.672Z,2.20
2019-05-05T22:13:44.235Z,1.80
2019-05-05T22:16:13.637Z,1.57
2019-05-05T22:18:46.562Z,2.00
2019-05-05T22:21:26.193Z,1.80
2019-05-05T22:24:17.467Z,1.90
2019-05-05T22:26:46.060Z,1.70
2019-05-05T22:29:17.142Z,1.60
2019-05-05T22:31:44.813Z,1.70
2019-05-05T22:34:14.589Z,1.80
2019-05-05T22:36:44.800Z,1.40
2019-05-05T22:39:16.481Z,1.23
2019-05-05T22:41:44.733Z,1.50
2019-05-05T22:44:14.030Z,1.40
2019-05-05T22:46:42.985Z,1.00
2019-05-05T22:49:11.416Z,1.10
2019-05-05T22:51:39.830Z,1.00
2019-05-05T22:54:08.493Z,0.80
2019-05-05T22:56:37.417Z,1.00
2019-05-05T22:59:06.117Z,0.90
2019-05-05T23:01:34.630Z,0.90
2019-05-05T23:04:20.811Z,1.00
2019-05-05T23:06:55.113Z,0.90
2019-05-05T23:09:23.795Z,1.10
2019-05-05T23:11:52.208Z,0.90
2019-05-05T23:14:29.363Z,0.80
2019-05-05T23:17:21.653Z,0.80
2019-05-05T23:20:13.864Z,0.70
2019-05-05T23:22:58.465Z,0.67
2019-05-05T23:25:34.805Z,0.60
2019-05-05T23:28:04.086Z,0.70
2019-05-05T23:30:41.603Z,0.70
2019-05-05T23:33:02.970Z,0.80
2019-05-05T23:35:31.390Z,0.70
2019-05-05T23:37:59.791Z,0.53
2019-05-05T23:40:28.460Z,0.60
2019-05-05T23:42:56.894Z,0.60
2019-05-05T23:45:25.293Z,0.47
2019-05-05T23:47:54.493Z,0.60
2019-05-05T23:50:23.305Z,0.60
2019-05-05T23:52:54.112Z,0.60
2019-05-05T23:55:23.891Z,0.53
2019-05-05T23:57:54.302Z,0.53
